sensor_id;sensor_type;location;lat;lon;timestamp;P1;durP1;ratioP1;P2;durP2;ratioP2
20482;SDS011;10400;53.198;6.592;2023-04-24T00:00:07;4.70;;;4.10;;
20482;SDS011;10400;53.198;6.592;2023-04-24T00:02:38;7.45;;;5.00;;
20482;SDS011;10400;53.198;6.592;2023-04-24T00:05:04;6.20;;;5.47;;
20482;SDS011;10400;53.198;6.592;2023-04-24T00:07:31;7.35;;;6.13;;
20482;SDS011;10400;53.198;6.592;2023-04-24T00:09:57;6.80;;;6.10;;
20482;SDS011;10400;53.198;6.592;2023-04-24T00:12:23;7.30;;;6.60;;
20482;SDS011;10400;53.198;6.592;2023-04-24T00:14:48;7.55;;;6.80;;
20482;SDS011;10400;53.198;6.592;2023-04-24T00:17:14;6.95;;;5.78;;
20482;SDS011;10400;53.198;6.592;2023-04-24T00:19:40;10.02;;;4.88;;
20482;SDS011;10400;53.198;6.592;2023-04-24T00:22:06;6.68;;;4.78;;
20482;SDS011;10400;53.198;6.592;2023-04-24T00:24:31;5.85;;;4.85;;
20482;SDS011;10400;53.198;6.592;2023-04-24T00:26:57;5.10;;;4.50;;
20482;SDS011;10400;53.198;6.592;2023-04-24T00:29:23;5.25;;;4.25;;
20482;SDS011;10400;53.198;6.592;2023-04-24T00:31:48;3.28;;;2.83;;
20482;SDS011;10400;53.198;6.592;2023-04-24T00:34:14;3.50;;;2.70;;
20482;SDS011;10400;53.198;6.592;2023-04-24T00:36:40;4.65;;;2.15;;
20482;SDS011;10400;53.198;6.592;2023-04-24T00:39:05;2.40;;;1.80;;
20482;SDS011;10400;53.198;6.592;2023-04-24T00:41:33;2.42;;;1.40;;
20482;SDS011;10400;53.198;6.592;2023-04-24T00:44:00;3.03;;;1.30;;
20482;SDS011;10400;53.198;6.592;2023-04-24T00:46:25;1.58;;;1.48;;
20482;SDS011;10400;53.198;6.592;2023-04-24T00:48:51;1.75;;;1.48;;
20482;SDS011;10400;53.198;6.592;2023-04-24T00:51:17;1.50;;;1.33;;
20482;SDS011;10400;53.198;6.592;2023-04-24T00:53:42;2.00;;;1.30;;
20482;SDS011;10400;53.198;6.592;2023-04-24T00:56:08;1.40;;;1.20;;
20482;SDS011;10400;53.198;6.592;2023-04-24T00:58:34;1.73;;;1.30;;
20482;SDS011;10400;53.198;6.592;2023-04-24T01:01:01;1.65;;;1.20;;
20482;SDS011;10400;53.198;6.592;2023-04-24T01:03:28;1.00;;;0.80;;
20482;SDS011;10400;53.198;6.592;2023-04-24T01:05:57;2.35;;;1.00;;
20482;SDS011;10400;53.198;6.592;2023-04-24T01:08:23;1.38;;;1.00;;
20482;SDS011;10400;53.198;6.592;2023-04-24T01:10:51;1.33;;;1.23;;
20482;SDS011;10400;53.198;6.592;2023-04-24T01:13:18;4.20;;;0.90;;
20482;SDS011;10400;53.198;6.592;2023-04-24T01:15:45;2.05;;;1.10;;
20482;SDS011;10400;53.198;6.592;2023-04-24T01:18:11;1.25;;;1.15;;
20482;SDS011;10400;53.198;6.592;2023-04-24T01:20:37;1.10;;;0.90;;
20482;SDS011;10400;53.198;6.592;2023-04-24T01:23:07;1.30;;;1.20;;
20482;SDS011;10400;53.198;6.592;2023-04-24T01:25:33;1.15;;;1.05;;
20482;SDS011;10400;53.198;6.592;2023-04-24T01:27:59;1.02;;;0.95;;
20482;SDS011;10400;53.198;6.592;2023-04-24T01:30:28;1.30;;;1.20;;
20482;SDS011;10400;53.198;6.592;2023-04-24T01:32:54;1.38;;;1.17;;
20482;SDS011;10400;53.198;6.592;2023-04-24T01:35:20;1.20;;;1.10;;
20482;SDS011;10400;53.198;6.592;2023-04-24T01:37:46;3.25;;;1.17;;
20482;SDS011;10400;53.198;6.592;2023-04-24T01:40:12;1.30;;;1.20;;
20482;SDS011;10400;53.198;6.592;2023-04-24T01:42:38;1.73;;;1.42;;
20482;SDS011;10400;53.198;6.592;2023-04-24T01:45:05;1.48;;;1.38;;
20482;SDS011;10400;53.198;6.592;2023-04-24T01:47:33;3.03;;;1.30;;
20482;SDS011;10400;53.198;6.592;2023-04-24T01:49:58;1.80;;;1.25;;
20482;SDS011;10400;53.198;6.592;2023-04-24T01:52:24;2.08;;;1.45;;
20482;SDS011;10400;53.198;6.592;2023-04-24T01:54:50;1.63;;;1.52;;
20482;SDS011;10400;53.198;6.592;2023-04-24T01:57:17;4.00;;;1.70;;
20482;SDS011;10400;53.198;6.592;2023-04-24T01:59:43;1.80;;;1.70;;
20482;SDS011;10400;53.198;6.592;2023-04-24T02:02:08;1.90;;;1.80;;
20482;SDS011;10400;53.198;6.592;2023-04-24T02:04:34;2.15;;;1.95;;
20482;SDS011;10400;53.198;6.592;2023-04-24T02:06:59;2.00;;;1.90;;
20482;SDS011;10400;53.198;6.592;2023-04-24T02:09:25;2.53;;;1.92;;
20482;SDS011;10400;53.198;6.592;2023-04-24T02:11:51;2.88;;;2.58;;
20482;SDS011;10400;53.198;6.592;2023-04-24T02:14:16;2.53;;;2.33;;
20482;SDS011;10400;53.198;6.592;2023-04-24T02:16:42;2.40;;;2.20;;
20482;SDS011;10400;53.198;6.592;2023-04-24T02:19:08;2.85;;;2.65;;
20482;SDS011;10400;53.198;6.592;2023-04-24T02:21:35;3.03;;;2.72;;
20482;SDS011;10400;53.198;6.592;2023-04-24T02:24:00;3.40;;;3.08;;
20482;SDS011;10400;53.198;6.592;2023-04-24T02:26:27;4.35;;;3.30;;
20482;SDS011;10400;53.198;6.592;2023-04-24T02:28:52;3.45;;;3.15;;
20482;SDS011;10400;53.198;6.592;2023-04-24T02:31:18;4.85;;;3.20;;
20482;SDS011;10400;53.198;6.592;2023-04-24T02:33:44;4.05;;;3.65;;
20482;SDS011;10400;53.198;6.592;2023-04-24T02:36:09;4.05;;;3.75;;
20482;SDS011;10400;53.198;6.592;2023-04-24T02:38:35;4.10;;;3.70;;
20482;SDS011;10400;53.198;6.592;2023-04-24T02:41:01;5.38;;;4.32;;
20482;SDS011;10400;53.198;6.592;2023-04-24T02:43:27;4.65;;;4.25;;
20482;SDS011;10400;53.198;6.592;2023-04-24T02:45:53;4.63;;;4.22;;
20482;SDS011;10400;53.198;6.592;2023-04-24T02:48:18;5.13;;;4.72;;
20482;SDS011;10400;53.198;6.592;2023-04-24T02:50:45;7.80;;;5.18;;
20482;SDS011;10400;53.198;6.592;2023-04-24T02:53:11;5.35;;;4.95;;
20482;SDS011;10400;53.198;6.592;2023-04-24T02:55:37;5.35;;;4.85;;
20482;SDS011;10400;53.198;6.592;2023-04-24T02:58:02;6.38;;;4.93;;
20482;SDS011;10400;53.198;6.592;2023-04-24T03:00:28;5.82;;;5.32;;
20482;SDS011;10400;53.198;6.592;2023-04-24T03:02:54;6.28;;;5.25;;
20482;SDS011;10400;53.198;6.592;2023-04-24T03:05:20;6.10;;;5.50;;
20482;SDS011;10400;53.198;6.592;2023-04-24T03:07:46;6.10;;;5.50;;
20482;SDS011;10400;53.198;6.592;2023-04-24T03:10:13;6.13;;;5.53;;
20482;SDS011;10400;53.198;6.592;2023-04-24T03:12:39;6.03;;;5.45;;
20482;SDS011;10400;53.198;6.592;2023-04-24T03:15:05;6.85;;;6.15;;
20482;SDS011;10400;53.198;6.592;2023-04-24T03:17:31;6.47;;;5.75;;
20482;SDS011;10400;53.198;6.592;2023-04-24T03:19:56;6.30;;;5.70;;
20482;SDS011;10400;53.198;6.592;2023-04-24T03:22:22;6.82;;;6.13;;
20482;SDS011;10400;53.198;6.592;2023-04-24T03:24:48;7.13;;;6.35;;
20482;SDS011;10400;53.198;6.592;2023-04-24T03:27:13;7.38;;;6.50;;
20482;SDS011;10400;53.198;6.592;2023-04-24T03:29:39;7.57;;;6.63;;
20482;SDS011;10400;53.198;6.592;2023-04-24T03:32:04;7.90;;;7.10;;
20482;SDS011;10400;53.198;6.592;2023-04-24T03:34:30;9.70;;;7.80;;
20482;SDS011;10400;53.198;6.592;2023-04-24T03:36:56;8.43;;;7.50;;
20482;SDS011;10400;53.198;6.592;2023-04-24T03:39:21;8.77;;;7.88;;
20482;SDS011;10400;53.198;6.592;2023-04-24T03:41:47;9.40;;;8.40;;
20482;SDS011;10400;53.198;6.592;2023-04-24T03:44:12;10.73;;;9.55;;
20482;SDS011;10400;53.198;6.592;2023-04-24T03:46:38;10.75;;;9.65;;
20482;SDS011;10400;53.198;6.592;2023-04-24T03:49:03;11.63;;;10.43;;
20482;SDS011;10400;53.198;6.592;2023-04-24T03:51:29;11.73;;;10.05;;
20482;SDS011;10400;53.198;6.592;2023-04-24T03:53:56;13.27;;;10.55;;
20482;SDS011;10400;53.198;6.592;2023-04-24T03:56:22;13.25;;;11.95;;
20482;SDS011;10400;53.198;6.592;2023-04-24T03:58:47;12.70;;;11.40;;
20482;SDS011;10400;53.198;6.592;2023-04-24T04:01:13;12.88;;;10.90;;
20482;SDS011;10400;53.198;6.592;2023-04-24T04:03:40;13.73;;;10.48;;
20482;SDS011;10400;53.198;6.592;2023-04-24T04:06:06;11.65;;;10.55;;
20482;SDS011;10400;53.198;6.592;2023-04-24T04:08:32;11.35;;;10.25;;
20482;SDS011;10400;53.198;6.592;2023-04-24T04:10:58;10.15;;;9.15;;
20482;SDS011;10400;53.198;6.592;2023-04-24T04:13:23;10.85;;;9.63;;
20482;SDS011;10400;53.198;6.592;2023-04-24T04:15:49;12.02;;;9.48;;
20482;SDS011;10400;53.198;6.592;2023-04-24T04:18:15;10.02;;;9.02;;
20482;SDS011;10400;53.198;6.592;2023-04-24T04:20:40;11.35;;;9.23;;
20482;SDS011;10400;53.198;6.592;2023-04-24T04:23:06;10.63;;;8.68;;
20482;SDS011;10400;53.198;6.592;2023-04-24T04:25:32;11.85;;;9.68;;
20482;SDS011;10400;53.198;6.592;2023-04-24T04:27:57;9.38;;;8.48;;
20482;SDS011;10400;53.198;6.592;2023-04-24T04:30:24;9.23;;;8.32;;
20482;SDS011;10400;53.198;6.592;2023-04-24T04:32:50;9.85;;;8.85;;
20482;SDS011;10400;53.198;6.592;2023-04-24T04:35:16;8.48;;;7.68;;
20482;SDS011;10400;53.198;6.592;2023-04-24T04:37:42;7.65;;;6.93;;
20482;SDS011;10400;53.198;6.592;2023-04-24T04:40:08;8.95;;;8.05;;
20482;SDS011;10400;53.198;6.592;2023-04-24T04:42:37;7.57;;;6.78;;
20482;SDS011;10400;53.198;6.592;2023-04-24T04:45:06;8.52;;;7.65;;
20482;SDS011;10400;53.198;6.592;2023-04-24T04:47:33;8.02;;;7.18;;
20482;SDS011;10400;53.198;6.592;2023-04-24T04:49:59;7.30;;;6.47;;
20482;SDS011;10400;53.198;6.592;2023-04-24T04:52:25;8.15;;;7.35;;
20482;SDS011;10400;53.198;6.592;2023-04-24T04:54:51;9.98;;;6.22;;
20482;SDS011;10400;53.198;6.592;2023-04-24T04:57:17;7.50;;;6.30;;
20482;SDS011;10400;53.198;6.592;2023-04-24T04:59:42;6.25;;;5.65;;
20482;SDS011;10400;53.198;6.592;2023-04-24T05:02:08;7.40;;;5.43;;
20482;SDS011;10400;53.198;6.592;2023-04-24T05:04:34;7.15;;;5.40;;
20482;SDS011;10400;53.198;6.592;2023-04-24T05:07:00;5.80;;;5.30;;
20482;SDS011;10400;53.198;6.592;2023-04-24T05:09:25;6.32;;;5.50;;
20482;SDS011;10400;53.198;6.592;2023-04-24T05:11:52;6.35;;;5.68;;
20482;SDS011;10400;53.198;6.592;2023-04-24T05:14:18;7.38;;;5.88;;
20482;SDS011;10400;53.198;6.592;2023-04-24T05:16:44;7.18;;;5.38;;
20482;SDS011;10400;53.198;6.592;2023-04-24T05:19:10;5.85;;;4.90;;
20482;SDS011;10400;53.198;6.592;2023-04-24T05:21:37;4.90;;;4.32;;
20482;SDS011;10400;53.198;6.592;2023-04-24T05:24:04;4.00;;;3.58;;
20482;SDS011;10400;53.198;6.592;2023-04-24T05:26:30;4.18;;;3.60;;
20482;SDS011;10400;53.198;6.592;2023-04-24T05:28:56;4.45;;;3.95;;
20482;SDS011;10400;53.198;6.592;2023-04-24T05:31:21;4.85;;;3.67;;
20482;SDS011;10400;53.198;6.592;2023-04-24T05:33:47;5.57;;;3.50;;
20482;SDS011;10400;53.198;6.592;2023-04-24T05:36:13;4.00;;;3.63;;
20482;SDS011;10400;53.198;6.592;2023-04-24T05:38:38;4.47;;;3.70;;
20482;SDS011;10400;53.198;6.592;2023-04-24T05:41:04;4.10;;;3.65;;
20482;SDS011;10400;53.198;6.592;2023-04-24T05:43:30;4.07;;;3.60;;
20482;SDS011;10400;53.198;6.592;2023-04-24T05:45:55;5.25;;;4.10;;
20482;SDS011;10400;53.198;6.592;2023-04-24T05:48:21;3.95;;;3.55;;
20482;SDS011;10400;53.198;6.592;2023-04-24T05:50:47;4.90;;;4.15;;
20482;SDS011;10400;53.198;6.592;2023-04-24T05:53:13;3.33;;;2.90;;
20482;SDS011;10400;53.198;6.592;2023-04-24T05:55:39;4.43;;;3.72;;
20482;SDS011;10400;53.198;6.592;2023-04-24T05:58:04;5.90;;;3.95;;
20482;SDS011;10400;53.198;6.592;2023-04-24T06:00:31;4.68;;;3.60;;
20482;SDS011;10400;53.198;6.592;2023-04-24T06:02:57;3.65;;;3.08;;
20482;SDS011;10400;53.198;6.592;2023-04-24T06:05:25;5.97;;;3.28;;
20482;SDS011;10400;53.198;6.592;2023-04-24T06:07:51;4.18;;;2.92;;
20482;SDS011;10400;53.198;6.592;2023-04-24T06:10:16;3.88;;;3.30;;
20482;SDS011;10400;53.198;6.592;2023-04-24T06:12:42;5.10;;;3.78;;
20482;SDS011;10400;53.198;6.592;2023-04-24T06:15:08;5.43;;;3.70;;
20482;SDS011;10400;53.198;6.592;2023-04-24T06:17:34;5.35;;;3.70;;
20482;SDS011;10400;53.198;6.592;2023-04-24T06:19:59;9.18;;;4.68;;
20482;SDS011;10400;53.198;6.592;2023-04-24T06:22:25;6.35;;;4.43;;
20482;SDS011;10400;53.198;6.592;2023-04-24T06:24:51;7.95;;;4.30;;
20482;SDS011;10400;53.198;6.592;2023-04-24T06:27:16;6.13;;;4.53;;
20482;SDS011;10400;53.198;6.592;2023-04-24T06:29:42;7.50;;;5.10;;
20482;SDS011;10400;53.198;6.592;2023-04-24T06:32:07;7.85;;;5.20;;
20482;SDS011;10400;53.198;6.592;2023-04-24T06:34:33;10.07;;;6.20;;
20482;SDS011;10400;53.198;6.592;2023-04-24T06:36:59;8.88;;;6.72;;
20482;SDS011;10400;53.198;6.592;2023-04-24T06:39:25;9.73;;;6.32;;
20482;SDS011;10400;53.198;6.592;2023-04-24T06:41:51;12.15;;;6.90;;
20482;SDS011;10400;53.198;6.592;2023-04-24T06:44:16;9.73;;;6.40;;
20482;SDS011;10400;53.198;6.592;2023-04-24T06:46:42;8.57;;;5.68;;
20482;SDS011;10400;53.198;6.592;2023-04-24T06:49:08;8.68;;;5.22;;
20482;SDS011;10400;53.198;6.592;2023-04-24T06:51:34;10.65;;;6.32;;
20482;SDS011;10400;53.198;6.592;2023-04-24T06:53:59;10.80;;;6.00;;
20482;SDS011;10400;53.198;6.592;2023-04-24T06:56:25;9.43;;;6.85;;
20482;SDS011;10400;53.198;6.592;2023-04-24T06:58:51;9.23;;;5.85;;
20482;SDS011;10400;53.198;6.592;2023-04-24T07:01:18;8.73;;;5.40;;
20482;SDS011;10400;53.198;6.592;2023-04-24T07:03:43;6.57;;;4.22;;
20482;SDS011;10400;53.198;6.592;2023-04-24T07:06:09;5.03;;;3.42;;
20482;SDS011;10400;53.198;6.592;2023-04-24T07:08:37;5.38;;;3.30;;
20482;SDS011;10400;53.198;6.592;2023-04-24T07:11:03;7.88;;;3.58;;
20482;SDS011;10400;53.198;6.592;2023-04-24T07:13:29;10.38;;;3.15;;
20482;SDS011;10400;53.198;6.592;2023-04-24T07:15:54;5.05;;;2.92;;
20482;SDS011;10400;53.198;6.592;2023-04-24T07:18:21;8.88;;;2.90;;
20482;SDS011;10400;53.198;6.592;2023-04-24T07:20:46;5.82;;;2.17;;
20482;SDS011;10400;53.198;6.592;2023-04-24T07:23:12;5.38;;;2.05;;
20482;SDS011;10400;53.198;6.592;2023-04-24T07:25:38;3.50;;;2.22;;
20482;SDS011;10400;53.198;6.592;2023-04-24T07:28:04;7.65;;;2.75;;
20482;SDS011;10400;53.198;6.592;2023-04-24T07:30:30;4.68;;;2.20;;
20482;SDS011;10400;53.198;6.592;2023-04-24T07:32:58;4.40;;;1.80;;
20482;SDS011;10400;53.198;6.592;2023-04-24T07:35:24;6.45;;;2.78;;
20482;SDS011;10400;53.198;6.592;2023-04-24T07:37:51;5.20;;;2.30;;
20482;SDS011;10400;53.198;6.592;2023-04-24T07:40:18;6.93;;;2.92;;
20482;SDS011;10400;53.198;6.592;2023-04-24T07:42:45;5.55;;;2.50;;
20482;SDS011;10400;53.198;6.592;2023-04-24T07:45:13;6.90;;;2.65;;
20482;SDS011;10400;53.198;6.592;2023-04-24T07:47:39;5.18;;;2.85;;
20482;SDS011;10400;53.198;6.592;2023-04-24T07:50:08;10.32;;;3.00;;
20482;SDS011;10400;53.198;6.592;2023-04-24T07:52:34;5.63;;;2.70;;
20482;SDS011;10400;53.198;6.592;2023-04-24T07:55:00;5.95;;;2.67;;
20482;SDS011;10400;53.198;6.592;2023-04-24T07:57:27;5.75;;;3.17;;
20482;SDS011;10400;53.198;6.592;2023-04-24T07:59:52;10.32;;;3.35;;
20482;SDS011;10400;53.198;6.592;2023-04-24T08:02:18;7.90;;;3.75;;
20482;SDS011;10400;53.198;6.592;2023-04-24T08:04:44;8.35;;;4.28;;
20482;SDS011;10400;53.198;6.592;2023-04-24T08:07:10;8.15;;;4.63;;
20482;SDS011;10400;53.198;6.592;2023-04-24T08:09:37;8.63;;;5.32;;
20482;SDS011;10400;53.198;6.592;2023-04-24T08:12:03;13.38;;;6.75;;
20482;SDS011;10400;53.198;6.592;2023-04-24T08:14:29;13.73;;;7.13;;
20482;SDS011;10400;53.198;6.592;2023-04-24T08:16:55;16.90;;;8.10;;
20482;SDS011;10400;53.198;6.592;2023-04-24T08:19:21;15.13;;;8.25;;
20482;SDS011;10400;53.198;6.592;2023-04-24T08:21:46;22.02;;;9.93;;
20482;SDS011;10400;53.198;6.592;2023-04-24T08:24:12;19.63;;;11.93;;
20482;SDS011;10400;53.198;6.592;2023-04-24T08:26:38;20.50;;;11.40;;
20482;SDS011;10400;53.198;6.592;2023-04-24T08:29:04;22.83;;;11.60;;
20482;SDS011;10400;53.198;6.592;2023-04-24T08:31:31;24.52;;;13.07;;
20482;SDS011;10400;53.198;6.592;2023-04-24T08:33:57;21.30;;;12.02;;
20482;SDS011;10400;53.198;6.592;2023-04-24T08:36:23;25.30;;;13.32;;
20482;SDS011;10400;53.198;6.592;2023-04-24T08:38:49;23.83;;;14.27;;
20482;SDS011;10400;53.198;6.592;2023-04-24T08:41:15;24.98;;;13.57;;
20482;SDS011;10400;53.198;6.592;2023-04-24T08:43:42;27.75;;;14.00;;
20482;SDS011;10400;53.198;6.592;2023-04-24T08:46:08;28.58;;;12.32;;
20482;SDS011;10400;53.198;6.592;2023-04-24T08:48:35;27.27;;;12.18;;
20482;SDS011;10400;53.198;6.592;2023-04-24T08:51:01;19.67;;;12.02;;
20482;SDS011;10400;53.198;6.592;2023-04-24T08:53:29;22.50;;;11.93;;
20482;SDS011;10400;53.198;6.592;2023-04-24T08:55:55;20.35;;;10.85;;
20482;SDS011;10400;53.198;6.592;2023-04-24T08:58:21;21.23;;;10.52;;
20482;SDS011;10400;53.198;6.592;2023-04-24T09:00:50;21.75;;;11.68;;
20482;SDS011;10400;53.198;6.592;2023-04-24T09:03:16;19.38;;;10.82;;
20482;SDS011;10400;53.198;6.592;2023-04-24T09:05:42;17.25;;;10.15;;
20482;SDS011;10400;53.198;6.592;2023-04-24T09:08:10;16.63;;;9.85;;
20482;SDS011;10400;53.198;6.592;2023-04-24T09:10:38;19.52;;;10.23;;
20482;SDS011;10400;53.198;6.592;2023-04-24T09:13:05;19.38;;;12.70;;
20482;SDS011;10400;53.198;6.592;2023-04-24T09:15:34;21.70;;;12.43;;
20482;SDS011;10400;53.198;6.592;2023-04-24T09:18:00;25.52;;;13.15;;
20482;SDS011;10400;53.198;6.592;2023-04-24T09:20:26;23.35;;;12.60;;
20482;SDS011;10400;53.198;6.592;2023-04-24T09:22:55;24.05;;;13.75;;
20482;SDS011;10400;53.198;6.592;2023-04-24T09:25:23;23.25;;;13.25;;
20482;SDS011;10400;53.198;6.592;2023-04-24T09:28:01;20.65;;;11.38;;
20482;SDS011;10400;53.198;6.592;2023-04-24T09:30:30;17.30;;;9.90;;
20482;SDS011;10400;53.198;6.592;2023-04-24T09:33:15;18.27;;;9.20;;
20482;SDS011;10400;53.198;6.592;2023-04-24T09:35:41;13.65;;;8.27;;
20482;SDS011;10400;53.198;6.592;2023-04-24T09:38:08;18.52;;;9.27;;
20482;SDS011;10400;53.198;6.592;2023-04-24T09:40:34;14.95;;;7.78;;
20482;SDS011;10400;53.198;6.592;2023-04-24T09:43:00;16.27;;;8.45;;
20482;SDS011;10400;53.198;6.592;2023-04-24T09:45:28;15.40;;;7.60;;
20482;SDS011;10400;53.198;6.592;2023-04-24T09:48:00;14.60;;;7.30;;
20482;SDS011;10400;53.198;6.592;2023-04-24T09:50:26;14.25;;;7.50;;
20482;SDS011;10400;53.198;6.592;2023-04-24T09:52:58;18.95;;;7.55;;
20482;SDS011;10400;53.198;6.592;2023-04-24T09:55:28;17.95;;;7.30;;
20482;SDS011;10400;53.198;6.592;2023-04-24T09:57:56;17.33;;;6.85;;
20482;SDS011;10400;53.198;6.592;2023-04-24T10:00:27;15.88;;;6.28;;
20482;SDS011;10400;53.198;6.592;2023-04-24T10:03:03;14.98;;;6.13;;
20482;SDS011;10400;53.198;6.592;2023-04-24T10:05:34;13.50;;;6.00;;
20482;SDS011;10400;53.198;6.592;2023-04-24T10:08:08;11.80;;;5.30;;
20482;SDS011;10400;53.198;6.592;2023-04-24T10:10:37;11.50;;;5.03;;
20482;SDS011;10400;53.198;6.592;2023-04-24T10:13:05;7.20;;;4.20;;
20482;SDS011;10400;53.198;6.592;2023-04-24T10:15:32;11.88;;;4.40;;
20482;SDS011;10400;53.198;6.592;2023-04-24T10:18:01;12.85;;;3.67;;
20482;SDS011;10400;53.198;6.592;2023-04-24T10:20:30;6.65;;;3.13;;
20482;SDS011;10400;53.198;6.592;2023-04-24T10:22:56;11.10;;;3.17;;
20482;SDS011;10400;53.198;6.592;2023-04-24T10:25:29;8.43;;;2.90;;
20482;SDS011;10400;53.198;6.592;2023-04-24T10:27:58;4.97;;;3.10;;
20482;SDS011;10400;53.198;6.592;2023-04-24T10:30:26;7.55;;;2.90;;
20482;SDS011;10400;53.198;6.592;2023-04-24T10:32:53;8.15;;;2.88;;
20482;SDS011;10400;53.198;6.592;2023-04-24T10:35:19;8.48;;;3.20;;
20482;SDS011;10400;53.198;6.592;2023-04-24T10:38:06;6.05;;;2.75;;
20482;SDS011;10400;53.198;6.592;2023-04-24T10:40:35;10.25;;;2.80;;
20482;SDS011;10400;53.198;6.592;2023-04-24T10:43:02;12.25;;;3.22;;
20482;SDS011;10400;53.198;6.592;2023-04-24T10:45:32;10.23;;;3.17;;
20482;SDS011;10400;53.198;6.592;2023-04-24T10:50:29;5.70;;;2.83;;
20482;SDS011;10400;53.198;6.592;2023-04-24T10:53:11;9.30;;;2.35;;
20482;SDS011;10400;53.198;6.592;2023-04-24T10:55:57;7.97;;;2.58;;
20482;SDS011;10400;53.198;6.592;2023-04-24T10:58:24;6.85;;;2.63;;
20482;SDS011;10400;53.198;6.592;2023-04-24T11:01:25;6.85;;;2.53;;
20482;SDS011;10400;53.198;6.592;2023-04-24T11:03:55;4.25;;;2.15;;
20482;SDS011;10400;53.198;6.592;2023-04-24T11:06:35;8.38;;;2.20;;
20482;SDS011;10400;53.198;6.592;2023-04-24T11:09:06;7.22;;;2.53;;
20482;SDS011;10400;53.198;6.592;2023-04-24T11:11:37;9.52;;;2.40;;
20482;SDS011;10400;53.198;6.592;2023-04-24T11:14:06;8.40;;;2.50;;
20482;SDS011;10400;53.198;6.592;2023-04-24T11:16:33;7.13;;;2.20;;
20482;SDS011;10400;53.198;6.592;2023-04-24T11:19:23;6.97;;;2.20;;
20482;SDS011;10400;53.198;6.592;2023-04-24T11:27:00;10.80;;;2.90;;
20482;SDS011;10400;53.198;6.592;2023-04-24T11:29:49;7.30;;;1.80;;
20482;SDS011;10400;53.198;6.592;2023-04-24T11:35:00;10.73;;;2.45;;
20482;SDS011;10400;53.198;6.592;2023-04-24T11:37:38;5.97;;;1.83;;
20482;SDS011;10400;53.198;6.592;2023-04-24T11:40:08;6.20;;;1.73;;
20482;SDS011;10400;53.198;6.592;2023-04-24T11:42:36;6.80;;;1.67;;
20482;SDS011;10400;53.198;6.592;2023-04-24T11:45:11;7.20;;;1.92;;
20482;SDS011;10400;53.198;6.592;2023-04-24T11:47:38;6.45;;;1.83;;
20482;SDS011;10400;53.198;6.592;2023-04-24T11:50:05;11.32;;;2.25;;
20482;SDS011;10400;53.198;6.592;2023-04-24T11:52:33;5.35;;;1.90;;
20482;SDS011;10400;53.198;6.592;2023-04-24T11:55:02;8.60;;;1.98;;
20482;SDS011;10400;53.198;6.592;2023-04-24T11:57:28;7.25;;;1.77;;
20482;SDS011;10400;53.198;6.592;2023-04-24T11:59:59;3.00;;;1.63;;
20482;SDS011;10400;53.198;6.592;2023-04-24T12:02:25;6.15;;;1.60;;
20482;SDS011;10400;53.198;6.592;2023-04-24T12:04:52;5.75;;;1.67;;
20482;SDS011;10400;53.198;6.592;2023-04-24T12:07:18;7.60;;;1.58;;
20482;SDS011;10400;53.198;6.592;2023-04-24T12:09:49;8.02;;;1.75;;
20482;SDS011;10400;53.198;6.592;2023-04-24T12:12:23;6.32;;;1.50;;
20482;SDS011;10400;53.198;6.592;2023-04-24T12:14:57;6.47;;;1.40;;
20482;SDS011;10400;53.198;6.592;2023-04-24T12:17:24;5.97;;;1.88;;
20482;SDS011;10400;53.198;6.592;2023-04-24T12:20:02;12.57;;;2.17;;
20482;SDS011;10400;53.198;6.592;2023-04-24T12:22:49;6.20;;;1.88;;
20482;SDS011;10400;53.198;6.592;2023-04-24T12:25:19;8.65;;;1.70;;
20482;SDS011;10400;53.198;6.592;2023-04-24T12:27:46;9.73;;;1.60;;
20482;SDS011;10400;53.198;6.592;2023-04-24T12:30:17;5.47;;;1.40;;
20482;SDS011;10400;53.198;6.592;2023-04-24T12:32:44;4.07;;;1.30;;
20482;SDS011;10400;53.198;6.592;2023-04-24T12:35:11;6.13;;;1.52;;
20482;SDS011;10400;53.198;6.592;2023-04-24T12:37:37;6.85;;;1.38;;
20482;SDS011;10400;53.198;6.592;2023-04-24T12:40:08;3.47;;;1.17;;
20482;SDS011;10400;53.198;6.592;2023-04-24T12:42:35;5.85;;;1.38;;
20482;SDS011;10400;53.198;6.592;2023-04-24T12:45:06;6.30;;;1.05;;
20482;SDS011;10400;53.198;6.592;2023-04-24T12:47:33;5.75;;;1.23;;
20482;SDS011;10400;53.198;6.592;2023-04-24T12:49:59;2.08;;;0.98;;
20482;SDS011;10400;53.198;6.592;2023-04-24T12:52:25;4.68;;;1.08;;
20482;SDS011;10400;53.198;6.592;2023-04-24T12:54:53;3.13;;;0.80;;
20482;SDS011;10400;53.198;6.592;2023-04-24T12:57:20;5.55;;;1.13;;
20482;SDS011;10400;53.198;6.592;2023-04-24T12:59:46;1.83;;;0.93;;
20482;SDS011;10400;53.198;6.592;2023-04-24T13:02:12;5.43;;;0.95;;
20482;SDS011;10400;53.198;6.592;2023-04-24T13:04:38;6.10;;;1.05;;
20482;SDS011;10400;53.198;6.592;2023-04-24T13:07:04;7.03;;;1.05;;
20482;SDS011;10400;53.198;6.592;2023-04-24T13:09:30;7.50;;;1.45;;
20482;SDS011;10400;53.198;6.592;2023-04-24T13:11:56;7.75;;;1.55;;
20482;SDS011;10400;53.198;6.592;2023-04-24T13:14:22;4.47;;;1.23;;
20482;SDS011;10400;53.198;6.592;2023-04-24T13:16:48;6.05;;;1.42;;
20482;SDS011;10400;53.198;6.592;2023-04-24T13:19:14;6.70;;;1.35;;
20482;SDS011;10400;53.198;6.592;2023-04-24T13:21:40;8.30;;;1.63;;
20482;SDS011;10400;53.198;6.592;2023-04-24T13:24:05;4.28;;;1.25;;
20482;SDS011;10400;53.198;6.592;2023-04-24T13:26:32;8.02;;;1.70;;
20482;SDS011;10400;53.198;6.592;2023-04-24T13:28:58;6.47;;;1.20;;
20482;SDS011;10400;53.198;6.592;2023-04-24T13:31:24;7.47;;;1.52;;
20482;SDS011;10400;53.198;6.592;2023-04-24T13:33:49;8.32;;;1.60;;
20482;SDS011;10400;53.198;6.592;2023-04-24T13:36:15;11.85;;;1.60;;
20482;SDS011;10400;53.198;6.592;2023-04-24T13:38:42;5.30;;;1.00;;
20482;SDS011;10400;53.198;6.592;2023-04-24T13:41:09;4.57;;;1.20;;
20482;SDS011;10400;53.198;6.592;2023-04-24T13:43:35;4.35;;;0.80;;
20482;SDS011;10400;53.198;6.592;2023-04-24T13:46:01;3.08;;;0.65;;
20482;SDS011;10400;53.198;6.592;2023-04-24T13:48:28;2.42;;;0.68;;
20482;SDS011;10400;53.198;6.592;2023-04-24T13:50:54;3.83;;;1.00;;
20482;SDS011;10400;53.198;6.592;2023-04-24T13:53:20;1.48;;;0.75;;
20482;SDS011;10400;53.198;6.592;2023-04-24T13:55:46;1.83;;;0.70;;
20482;SDS011;10400;53.198;6.592;2023-04-24T13:58:11;2.30;;;0.80;;
20482;SDS011;10400;53.198;6.592;2023-04-24T14:00:37;4.10;;;0.73;;
20482;SDS011;10400;53.198;6.592;2023-04-24T14:03:03;11.10;;;1.02;;
20482;SDS011;10400;53.198;6.592;2023-04-24T14:05:29;4.82;;;0.98;;
20482;SDS011;10400;53.198;6.592;2023-04-24T14:07:54;4.68;;;0.82;;
20482;SDS011;10400;53.198;6.592;2023-04-24T14:10:20;4.63;;;1.10;;
20482;SDS011;10400;53.198;6.592;2023-04-24T14:12:46;7.18;;;1.50;;
20482;SDS011;10400;53.198;6.592;2023-04-24T14:15:12;7.78;;;1.58;;
20482;SDS011;10400;53.198;6.592;2023-04-24T14:17:38;6.03;;;1.73;;
20482;SDS011;10400;53.198;6.592;2023-04-24T14:20:04;4.25;;;1.40;;
20482;SDS011;10400;53.198;6.592;2023-04-24T14:22:30;7.28;;;1.88;;
20482;SDS011;10400;53.198;6.592;2023-04-24T14:24:56;5.25;;;1.30;;
20482;SDS011;10400;53.198;6.592;2023-04-24T14:27:22;5.70;;;1.80;;
20482;SDS011;10400;53.198;6.592;2023-04-24T14:29:49;8.05;;;2.17;;
20482;SDS011;10400;53.198;6.592;2023-04-24T14:32:14;7.85;;;2.25;;
20482;SDS011;10400;53.198;6.592;2023-04-24T14:34:40;6.97;;;2.40;;
20482;SDS011;10400;53.198;6.592;2023-04-24T14:37:06;8.55;;;1.83;;
20482;SDS011;10400;53.198;6.592;2023-04-24T14:39:32;12.70;;;3.58;;
20482;SDS011;10400;53.198;6.592;2023-04-24T14:41:58;6.88;;;2.10;;
20482;SDS011;10400;53.198;6.592;2023-04-24T14:44:24;8.63;;;2.85;;
20482;SDS011;10400;53.198;6.592;2023-04-24T14:46:49;8.32;;;2.35;;
20482;SDS011;10400;53.198;6.592;2023-04-24T14:49:15;8.27;;;2.40;;
20482;SDS011;10400;53.198;6.592;2023-04-24T14:51:41;6.25;;;2.20;;